sensor_id;sensor_type;location;lat;lon;timestamp;pressure;altitude;pressure_sealevel;temperature;humidity
23953;BME280;12163;49.316;6.092;2024-02-14T00:02:13;99723.28;;;10.26;70.86
23953;BME280;12163;49.316;6.092;2024-02-14T00:04:40;99730.84;;;10.24;71.03
23953;BME280;12163;49.316;6.092;2024-02-14T00:07:06;99718.44;;;10.23;70.94
23953;BME280;12163;49.316;6.092;2024-02-14T00:09:33;99713.88;;;10.18;71.17
23953;BME280;12163;49.316;6.092;2024-02-14T00:12:00;99714.66;;;10.19;70.60
23953;BME280;12163;49.316;6.092;2024-02-14T00:14:26;99709.81;;;10.21;70.48
23953;BME280;12163;49.316;6.092;2024-02-14T00:16:53;99713.56;;;10.25;70.60
23953;BME280;12163;49.316;6.092;2024-02-14T00:19:20;99708.41;;;10.28;70.71
23953;BME280;12163;49.316;6.092;2024-02-14T00:21:47;99706.53;;;10.29;69.85
23953;BME280;12163;49.316;6.092;2024-02-14T00:24:13;99700.09;;;10.25;69.80
23953;BME280;12163;49.316;6.092;2024-02-14T00:26:42;99695.78;;;10.24;70.37
23953;BME280;12163;49.316;6.092;2024-02-14T00:29:08;99700.31;;;10.28;70.28
23953;BME280;12163;49.316;6.092;2024-02-14T00:31:35;99696.78;;;10.33;69.93
23953;BME280;12163;49.316;6.092;2024-02-14T00:34:01;99693.00;;;10.34;69.12
23953;BME280;12163;49.316;6.092;2024-02-14T00:36:28;99681.66;;;10.37;69.24
23953;BME280;12163;49.316;6.092;2024-02-14T00:38:55;99688.09;;;10.41;68.91
23953;BME280;12163;49.316;6.092;2024-02-14T00:41:21;99684.09;;;10.38;68.73
23953;BME280;12163;49.316;6.092;2024-02-14T00:43:48;99689.47;;;10.38;69.18
23953;BME280;12163;49.316;6.092;2024-02-14T00:46:17;99694.84;;;10.43;68.95
23953;BME280;12163;49.316;6.092;2024-02-14T00:48:44;99694.56;;;10.45;69.48
23953;BME280;12163;49.316;6.092;2024-02-14T00:51:11;99689.97;;;10.45;70.37
23953;BME280;12163;49.316;6.092;2024-02-14T00:53:38;99685.03;;;10.52;69.85
23953;BME280;12163;49.316;6.092;2024-02-14T00:56:05;99678.03;;;10.51;70.48
23953;BME280;12163;49.316;6.092;2024-02-14T00:58:32;99685.28;;;10.56;70.66
23953;BME280;12163;49.316;6.092;2024-02-14T01:00:58;99682.91;;;10.54;71.34
23953;BME280;12163;49.316;6.092;2024-02-14T01:03:25;99676.13;;;10.57;71.36
23953;BME280;12163;49.316;6.092;2024-02-14T01:05:51;99675.03;;;10.58;71.34
23953;BME280;12163;49.316;6.092;2024-02-14T01:08:18;99675.03;;;10.58;70.94
23953;BME280;12163;49.316;6.092;2024-02-14T01:10:45;99668.59;;;10.54;70.88
23953;BME280;12163;49.316;6.092;2024-02-14T01:13:13;99662.91;;;10.55;71.60
23953;BME280;12163;49.316;6.092;2024-02-14T01:15:39;99668.31;;;10.55;71.35
23953;BME280;12163;49.316;6.092;2024-02-14T01:18:06;99669.16;;;10.51;71.75
23953;BME280;12163;49.316;6.092;2024-02-14T01:20:32;99672.41;;;10.48;72.37
23953;BME280;12163;49.316;6.092;2024-02-14T01:22:59;99669.72;;;10.48;71.80
23953;BME280;12163;49.316;6.092;2024-02-14T01:25:26;99671.59;;;10.47;70.97
23953;BME280;12163;49.316;6.092;2024-02-14T01:27:53;99667.03;;;10.48;71.31
23953;BME280;12163;49.316;6.092;2024-02-14T01:30:19;99656.44;;;10.51;71.03
23953;BME280;12163;49.316;6.092;2024-02-14T01:32:46;99662.66;;;10.52;71.08
23953;BME280;12163;49.316;6.092;2024-02-14T01:35:13;99663.25;;;10.49;71.21
23953;BME280;12163;49.316;6.092;2024-02-14T01:37:39;99662.94;;;10.50;71.61
23953;BME280;12163;49.316;6.092;2024-02-14T01:40:06;99662.97;;;10.45;69.26
23953;BME280;12163;49.316;6.092;2024-02-14T01:42:34;99663.28;;;10.39;68.70
23953;BME280;12163;49.316;6.092;2024-02-14T01:45:00;99662.72;;;10.42;68.45
23953;BME280;12163;49.316;6.092;2024-02-14T01:47:29;99663.81;;;10.46;69.76
23953;BME280;12163;49.316;6.092;2024-02-14T01:49:58;99666.19;;;10.47;70.20
23953;BME280;12163;49.316;6.092;2024-02-14T01:52:25;99661.63;;;10.48;68.27
23953;BME280;12163;49.316;6.092;2024-02-14T01:54:53;99658.41;;;10.46;67.53
23953;BME280;12163;49.316;6.092;2024-02-14T01:57:21;99662.19;;;10.45;66.99
23953;BME280;12163;49.316;6.092;2024-02-14T01:59:49;99659.16;;;10.51;67.80
23953;BME280;12163;49.316;6.092;2024-02-14T02:02:19;99650.22;;;10.56;67.04
23953;BME280;12163;49.316;6.092;2024-02-14T02:04:46;99649.94;;;10.57;66.71
23953;BME280;12163;49.316;6.092;2024-02-14T02:07:13;99642.59;;;10.63;66.81
23953;BME280;12163;49.316;6.092;2024-02-14T02:09:39;99644.19;;;10.69;66.51
23953;BME280;12163;49.316;6.092;2024-02-14T02:12:06;99646.84;;;10.74;66.93
23953;BME280;12163;49.316;6.092;2024-02-14T02:14:34;99639.31;;;10.71;65.25
23953;BME280;12163;49.316;6.092;2024-02-14T02:17:01;99643.63;;;10.72;65.75
23953;BME280;12163;49.316;6.092;2024-02-14T02:19:28;99644.91;;;10.74;65.10
23953;BME280;12163;49.316;6.092;2024-02-14T02:21:55;99627.88;;;10.79;65.51
23953;BME280;12163;49.316;6.092;2024-02-14T02:24:22;99637.59;;;10.80;64.73
23953;BME280;12163;49.316;6.092;2024-02-14T02:26:48;99635.72;;;10.75;64.74
23953;BME280;12163;49.316;6.092;2024-02-14T02:29:15;99642.75;;;10.76;64.95
23953;BME280;12163;49.316;6.092;2024-02-14T02:31:43;99650.56;;;10.78;64.95
23953;BME280;12163;49.316;6.092;2024-02-14T02:34:09;99649.53;;;10.74;64.87
23953;BME280;12163;49.316;6.092;2024-02-14T02:36:38;99644.91;;;10.74;65.33
23953;BME280;12163;49.316;6.092;2024-02-14T02:39:05;99656.53;;;10.75;65.60
23953;BME280;12163;49.316;6.092;2024-02-14T02:41:32;99646.84;;;10.74;64.64
23953;BME280;12163;49.316;6.092;2024-02-14T02:43:59;99649.78;;;10.77;65.22
23953;BME280;12163;49.316;6.092;2024-02-14T02:46:28;99652.13;;;10.84;64.64
23953;BME280;12163;49.316;6.092;2024-02-14T02:48:55;99644.84;;;10.84;64.50
23953;BME280;12163;49.316;6.092;2024-02-14T02:51:24;99651.03;;;10.85;64.86
23953;BME280;12163;49.316;6.092;2024-02-14T02:53:50;99652.44;;;10.82;64.37
23953;BME280;12163;49.316;6.092;2024-02-14T02:56:18;99661.84;;;10.85;64.14
23953;BME280;12163;49.316;6.092;2024-02-14T02:58:45;99671.03;;;10.84;65.06
23953;BME280;12163;49.316;6.092;2024-02-14T03:01:11;99667.22;;;10.85;64.49
23953;BME280;12163;49.316;6.092;2024-02-14T03:03:38;99674.81;;;10.83;65.56
23953;BME280;12163;49.316;6.092;2024-02-14T03:06:05;99683.22;;;10.81;65.73
23953;BME280;12163;49.316;6.092;2024-02-14T03:08:32;99677.56;;;10.78;67.10
23953;BME280;12163;49.316;6.092;2024-02-14T03:11:04;99683.28;;;10.71;68.19
23953;BME280;12163;49.316;6.092;2024-02-14T03:13:32;99673.34;;;10.67;69.04
23953;BME280;12163;49.316;6.092;2024-02-14T03:15:59;99681.97;;;10.64;69.77
23953;BME280;12163;49.316;6.092;2024-02-14T03:18:26;99679.34;;;10.59;69.96
23953;BME280;12163;49.316;6.092;2024-02-14T03:20:52;99681.81;;;10.55;70.26
23953;BME280;12163;49.316;6.092;2024-02-14T03:23:22;99678.59;;;10.48;71.45
23953;BME280;12163;49.316;6.092;2024-02-14T03:25:49;99677.31;;;10.41;72.32
23953;BME280;12163;49.316;6.092;2024-02-14T03:28:17;99682.69;;;10.41;72.67
23953;BME280;12163;49.316;6.092;2024-02-14T03:30:44;99672.47;;;10.38;73.39
23953;BME280;12163;49.316;6.092;2024-02-14T03:33:11;99672.78;;;10.36;73.77
23953;BME280;12163;49.316;6.092;2024-02-14T03:35:37;99666.84;;;10.34;73.63
23953;BME280;12163;49.316;6.092;2024-02-14T03:38:04;99673.56;;;10.37;74.12
23953;BME280;12163;49.316;6.092;2024-02-14T03:40:31;99673.00;;;10.40;74.03
23953;BME280;12163;49.316;6.092;2024-02-14T03:42:58;99666.28;;;10.37;74.54
23953;BME280;12163;49.316;6.092;2024-02-14T03:45:24;99682.25;;;10.29;75.12
23953;BME280;12163;49.316;6.092;2024-02-14T03:47:51;99676.91;;;10.24;75.10
23953;BME280;12163;49.316;6.092;2024-02-14T03:50:18;99675.88;;;10.15;76.06
23953;BME280;12163;49.316;6.092;2024-02-14T03:52:44;99679.59;;;10.19;76.10
23953;BME280;12163;49.316;6.092;2024-02-14T03:55:12;99686.09;;;10.18;76.25
23953;BME280;12163;49.316;6.092;2024-02-14T03:57:40;99683.38;;;10.18;76.78
23953;BME280;12163;49.316;6.092;2024-02-14T04:00:08;99680.44;;;10.19;76.61
23953;BME280;12163;49.316;6.092;2024-02-14T04:02:37;99684.47;;;10.17;76.85
23953;BME280;12163;49.316;6.092;2024-02-14T04:05:06;99683.94;;;10.15;76.88
23953;BME280;12163;49.316;6.092;2024-02-14T04:07:33;99686.63;;;10.20;77.34
23953;BME280;12163;49.316;6.092;2024-02-14T04:10:04;99679.06;;;10.22;77.18
23953;BME280;12163;49.316;6.092;2024-02-14T04:12:31;99686.88;;;10.23;76.71
23953;BME280;12163;49.316;6.092;2024-02-14T04:14:58;99685.56;;;10.21;77.07
23953;BME280;12163;49.316;6.092;2024-02-14T04:17:25;99686.63;;;10.20;77.36
23953;BME280;12163;49.316;6.092;2024-02-14T04:19:51;99692.53;;;10.27;77.74
23953;BME280;12163;49.316;6.092;2024-02-14T04:22:18;99690.91;;;10.26;77.43
23953;BME280;12163;49.316;6.092;2024-02-14T04:24:45;99698.75;;;10.22;77.54
23953;BME280;12163;49.316;6.092;2024-02-14T04:27:12;99686.31;;;10.26;77.83
23953;BME280;12163;49.316;6.092;2024-02-14T04:29:39;99699.00;;;10.26;78.02
23953;BME280;12163;49.316;6.092;2024-02-14T04:32:05;99696.03;;;10.22;78.57
23953;BME280;12163;49.316;6.092;2024-02-14T04:34:32;99702.78;;;10.20;78.82
23953;BME280;12163;49.316;6.092;2024-02-14T04:36:59;99695.00;;;10.18;79.05
23953;BME280;12163;49.316;6.092;2024-02-14T04:39:26;99703.34;;;10.17;79.27
23953;BME280;12163;49.316;6.092;2024-02-14T04:41:52;99695.81;;;10.14;79.52
23953;BME280;12163;49.316;6.092;2024-02-14T04:44:31;99706.09;;;10.12;79.76
23953;BME280;12163;49.316;6.092;2024-02-14T04:46:58;99695.56;;;10.15;80.23
23953;BME280;12163;49.316;6.092;2024-02-14T04:49:26;99695.78;;;10.24;79.94
23953;BME280;12163;49.316;6.092;2024-02-14T04:51:53;99697.66;;;10.23;79.75
23953;BME280;12163;49.316;6.092;2024-02-14T04:54:20;99697.41;;;10.20;80.16
23953;BME280;12163;49.316;6.092;2024-02-14T04:56:47;99699.84;;;10.21;80.30
23953;BME280;12163;49.316;6.092;2024-02-14T04:59:18;99697.91;;;10.27;80.43
23953;BME280;12163;49.316;6.092;2024-02-14T05:01:46;99699.53;;;10.28;80.69
23953;BME280;12163;49.316;6.092;2024-02-14T05:04:12;99695.75;;;10.29;80.37
23953;BME280;12163;49.316;6.092;2024-02-14T05:06:43;99700.56;;;10.32;80.54
23953;BME280;12163;49.316;6.092;2024-02-14T05:09:10;99693.88;;;10.24;80.46
23953;BME280;12163;49.316;6.092;2024-02-14T05:11:37;99689.31;;;10.25;81.02
23953;BME280;12163;49.316;6.092;2024-02-14T05:14:03;99694.69;;;10.25;81.38
23953;BME280;12163;49.316;6.092;2024-02-14T05:16:30;99694.16;;;10.23;81.29
23953;BME280;12163;49.316;6.092;2024-02-14T05:18:57;99692.53;;;10.27;81.51
23953;BME280;12163;49.316;6.092;2024-02-14T05:21:24;99691.91;;;10.35;81.35
23953;BME280;12163;49.316;6.092;2024-02-14T05:23:50;99690.03;;;10.35;81.24
23953;BME280;12163;49.316;6.092;2024-02-14T05:26:17;99697.00;;;10.41;80.99
23953;BME280;12163;49.316;6.092;2024-02-14T05:28:44;99693.47;;;10.46;81.29
23953;BME280;12163;49.316;6.092;2024-02-14T05:31:10;99691.53;;;10.51;80.79
23953;BME280;12163;49.316;6.092;2024-02-14T05:33:37;99694.47;;;10.55;80.37
23953;BME280;12163;49.316;6.092;2024-02-14T05:36:04;99699.09;;;10.54;81.07
23953;BME280;12163;49.316;6.092;2024-02-14T05:38:32;99703.09;;;10.57;81.21
23953;BME280;12163;49.316;6.092;2024-02-14T05:41:00;99703.66;;;10.54;81.14
23953;BME280;12163;49.316;6.092;2024-02-14T05:43:27;99694.47;;;10.55;80.81
23953;BME280;12163;49.316;6.092;2024-02-14T05:45:53;99699.09;;;10.54;80.96
23953;BME280;12163;49.316;6.092;2024-02-14T05:48:20;99703.09;;;10.57;81.44
23953;BME280;12163;49.316;6.092;2024-02-14T05:50:47;99703.66;;;10.54;81.43
23953;BME280;12163;49.316;6.092;2024-02-14T05:53:13;99708.81;;;10.50;81.44
23953;BME280;12163;49.316;6.092;2024-02-14T05:55:40;99705.53;;;10.58;82.21
23953;BME280;12163;49.316;6.092;2024-02-14T05:58:07;99696.50;;;10.73;82.04
23953;BME280;12163;49.316;6.092;2024-02-14T06:00:33;99699.94;;;11.12;82.01
23953;BME280;12163;49.316;6.092;2024-02-14T06:03:03;99691.47;;;11.47;78.22
23953;BME280;12163;49.316;6.092;2024-02-14T06:05:32;99694.31;;;11.32;77.53
23953;BME280;12163;49.316;6.092;2024-02-14T06:07:59;99696.03;;;11.23;77.87
23953;BME280;12163;49.316;6.092;2024-02-14T06:10:26;99694.75;;;11.15;80.23
23953;BME280;12163;49.316;6.092;2024-02-14T06:12:52;99691.47;;;11.23;79.98
23953;BME280;12163;49.316;6.092;2024-02-14T06:15:19;99708.44;;;11.24;78.91
23953;BME280;12163;49.316;6.092;2024-02-14T06:17:46;99704.19;;;11.18;79.31
23953;BME280;12163;49.316;6.092;2024-02-14T06:20:12;99715.56;;;11.15;78.61
23953;BME280;12163;49.316;6.092;2024-02-14T06:22:39;99716.84;;;11.22;80.26
23953;BME280;12163;49.316;6.092;2024-02-14T06:25:15;99720.22;;;11.38;78.77
23953;BME280;12163;49.316;6.092;2024-02-14T06:27:42;99715.91;;;11.37;77.94
23953;BME280;12163;49.316;6.092;2024-02-14T06:30:10;99727.03;;;11.30;78.49
23953;BME280;12163;49.316;6.092;2024-02-14T06:32:36;99731.16;;;11.23;78.46
23953;BME280;12163;49.316;6.092;2024-02-14T06:35:03;99734.47;;;11.15;78.69
23953;BME280;12163;49.316;6.092;2024-02-14T06:37:30;99736.41;;;11.09;79.45
23953;BME280;12163;49.316;6.092;2024-02-14T06:40:11;99744.00;;;11.07;79.53
23953;BME280;12163;49.316;6.092;2024-02-14T06:42:37;99735.66;;;11.04;79.96
23953;BME280;12163;49.316;6.092;2024-02-14T06:45:05;99744.25;;;11.06;79.64
23953;BME280;12163;49.316;6.092;2024-02-14T06:47:32;99744.25;;;11.06;80.44
23953;BME280;12163;49.316;6.092;2024-02-14T06:49:59;99742.19;;;10.98;80.50
23953;BME280;12163;49.316;6.092;2024-02-14T06:52:26;99741.38;;;10.97;80.89
23953;BME280;12163;49.316;6.092;2024-02-14T06:54:52;99741.38;;;10.97;80.53
23953;BME280;12163;49.316;6.092;2024-02-14T06:57:19;99745.16;;;10.96;80.88
23953;BME280;12163;49.316;6.092;2024-02-14T06:59:46;99736.78;;;10.98;80.88
23953;BME280;12163;49.316;6.092;2024-02-14T07:02:12;99751.44;;;10.92;80.74
23953;BME280;12163;49.316;6.092;2024-02-14T07:04:39;99754.69;;;10.89;81.55
23953;BME280;12163;49.316;6.092;2024-02-14T07:07:06;99753.09;;;10.88;81.33
23953;BME280;12163;49.316;6.092;2024-02-14T07:09:34;99761.44;;;10.86;81.46
23953;BME280;12163;49.316;6.092;2024-02-14T07:12:02;99769.81;;;10.85;81.82
23953;BME280;12163;49.316;6.092;2024-02-14T07:14:29;99772.81;;;10.83;82.65
23953;BME280;12163;49.316;6.092;2024-02-14T07:16:55;99773.03;;;10.87;81.92
23953;BME280;12163;49.316;6.092;2024-02-14T07:19:22;99782.22;;;10.86;81.79
23953;BME280;12163;49.316;6.092;2024-02-14T07:21:48;99776.34;;;10.79;82.64
23953;BME280;12163;49.316;6.092;2024-02-14T07:24:15;99773.59;;;10.84;82.64
23953;BME280;12163;49.316;6.092;2024-02-14T07:26:42;99772.50;;;10.90;82.46
23953;BME280;12163;49.316;6.092;2024-02-14T07:29:10;99777.28;;;10.98;82.71
23953;BME280;12163;49.316;6.092;2024-02-14T07:31:37;99776.78;;;10.96;82.52
23953;BME280;12163;49.316;6.092;2024-02-14T07:34:04;99771.88;;;10.98;82.02
23953;BME280;12163;49.316;6.092;2024-02-14T07:36:35;99773.44;;;11.04;82.68
23953;BME280;12163;49.316;6.092;2024-02-14T07:39:02;99772.31;;;11.10;82.38
23953;BME280;12163;49.316;6.092;2024-02-14T07:41:29;99772.88;;;11.12;82.38
23953;BME280;12163;49.316;6.092;2024-02-14T07:43:55;99769.34;;;11.11;82.63
23953;BME280;12163;49.316;6.092;2024-02-14T07:46:23;99765.81;;;11.16;82.48
23953;BME280;12163;49.316;6.092;2024-02-14T07:48:52;99762.53;;;11.19;81.95
23953;BME280;12163;49.316;6.092;2024-02-14T07:51:20;99771.97;;;11.21;81.68
23953;BME280;12163;49.316;6.092;2024-02-14T07:53:46;99773.59;;;11.17;82.52
23953;BME280;12163;49.316;6.092;2024-02-14T07:56:13;99779.78;;;11.23;82.23
23953;BME280;12163;49.316;6.092;2024-02-14T07:58:39;99785.13;;;11.28;82.10
23953;BME280;12163;49.316;6.092;2024-02-14T08:01:06;99782.94;;;11.35;82.10
23953;BME280;12163;49.316;6.092;2024-02-14T08:03:33;99783.19;;;11.33;82.02
23953;BME280;12163;49.316;6.092;2024-02-14T08:05:59;99794.28;;;11.32;81.82
23953;BME280;12163;49.316;6.092;2024-02-14T08:08:27;99794.28;;;11.32;82.54
23953;BME280;12163;49.316;6.092;2024-02-14T08:10:54;99785.63;;;11.35;82.52
23953;BME280;12163;49.316;6.092;2024-02-14T08:13:21;99786.38;;;11.40;81.73
23953;BME280;12163;49.316;6.092;2024-02-14T08:15:48;99793.69;;;11.40;82.13
23953;BME280;12163;49.316;6.092;2024-02-14T08:18:15;99796.91;;;11.42;82.41
23953;BME280;12163;49.316;6.092;2024-02-14T08:20:41;99795.28;;;11.41;81.63
23953;BME280;12163;49.316;6.092;2024-02-14T08:23:08;99788.75;;;11.47;82.59
23953;BME280;12163;49.316;6.092;2024-02-14T08:25:35;99790.31;;;11.58;82.00
23953;BME280;12163;49.316;6.092;2024-02-14T08:28:01;99801.38;;;11.56;81.85
23953;BME280;12163;49.316;6.092;2024-02-14T08:30:29;99798.41;;;11.58;82.08
23953;BME280;12163;49.316;6.092;2024-02-14T08:32:55;99807.56;;;11.62;82.42
23953;BME280;12163;49.316;6.092;2024-02-14T08:35:23;99798.81;;;11.70;81.53
23953;BME280;12163;49.316;6.092;2024-02-14T08:37:49;99803.31;;;11.79;81.36
23953;BME280;12163;49.316;6.092;2024-02-14T08:40:16;99801.69;;;11.78;81.22
23953;BME280;12163;49.316;6.092;2024-02-14T08:42:43;99801.19;;;11.76;80.90
23953;BME280;12163;49.316;6.092;2024-02-14T08:45:10;99799.00;;;11.78;81.82
23953;BME280;12163;49.316;6.092;2024-02-14T08:47:37;99805.75;;;11.80;81.10
23953;BME280;12163;49.316;6.092;2024-02-14T08:50:04;99804.41;;;11.78;80.83
23953;BME280;12163;49.316;6.092;2024-02-14T08:52:31;99804.66;;;11.81;82.06
23953;BME280;12163;49.316;6.092;2024-02-14T08:54:59;99810.25;;;11.85;81.07
23953;BME280;12163;49.316;6.092;2024-02-14T08:57:25;99802.47;;;11.83;81.10
23953;BME280;12163;49.316;6.092;2024-02-14T08:59:52;99808.38;;;11.85;81.16
23953;BME280;12163;49.316;6.092;2024-02-14T09:02:19;99799.13;;;11.91;81.74
23953;BME280;12163;49.316;6.092;2024-02-14T09:04:48;99802.63;;;11.92;81.47
23953;BME280;12163;49.316;6.092;2024-02-14T09:07:16;99812.53;;;12.01;81.39
23953;BME280;12163;49.316;6.092;2024-02-14T09:09:42;99818.41;;;12.08;80.56
23953;BME280;12163;49.316;6.092;2024-02-14T09:12:09;99816.22;;;12.10;80.64
23953;BME280;12163;49.316;6.092;2024-02-14T09:14:36;99814.03;;;12.12;80.66
23953;BME280;12163;49.316;6.092;2024-02-14T09:17:02;99823.47;;;12.15;80.33
23953;BME280;12163;49.316;6.092;2024-02-14T09:19:29;99828.06;;;12.14;80.65
23953;BME280;12163;49.316;6.092;2024-02-14T09:21:56;99825.16;;;12.11;80.72
23953;BME280;12163;49.316;6.092;2024-02-14T09:24:23;99818.84;;;12.15;81.46
23953;BME280;12163;49.316;6.092;2024-02-14T09:26:49;99822.31;;;12.21;80.99
23953;BME280;12163;49.316;6.092;2024-02-14T09:29:16;99817.66;;;12.26;81.06
23953;BME280;12163;49.316;6.092;2024-02-14T09:31:42;99824.59;;;12.32;80.21
23953;BME280;12163;49.316;6.092;2024-02-14T09:34:13;99825.63;;;12.36;80.67
23953;BME280;12163;49.316;6.092;2024-02-14T09:36:41;99825.63;;;12.36;81.04
23953;BME280;12163;49.316;6.092;2024-02-14T09:39:07;99826.66;;;12.40;80.76
23953;BME280;12163;49.316;6.092;2024-02-14T09:41:40;99827.63;;;12.49;80.53
23953;BME280;12163;49.316;6.092;2024-02-14T09:44:09;99824.94;;;12.49;80.15
23953;BME280;12163;49.316;6.092;2024-02-14T09:46:36;99827.13;;;12.47;79.94
23953;BME280;12163;49.316;6.092;2024-02-14T09:49:06;99821.06;;;12.55;81.28
23953;BME280;12163;49.316;6.092;2024-02-14T09:51:33;99820.84;;;12.70;80.94
23953;BME280;12163;49.316;6.092;2024-02-14T09:54:00;99825.69;;;12.73;80.57
23953;BME280;12163;49.316;6.092;2024-02-14T09:56:30;99836.66;;;12.82;81.36
23953;BME280;12163;49.316;6.092;2024-02-14T09:58:58;99833.88;;;12.87;81.36
23953;BME280;12163;49.316;6.092;2024-02-14T10:01:26;99837.88;;;12.94;80.57
23953;BME280;12163;49.316;6.092;2024-02-14T10:03:54;99830.25;;;12.96;79.65
23953;BME280;12163;49.316;6.092;2024-02-14T10:06:21;99834.66;;;12.92;80.17
23953;BME280;12163;49.316;6.092;2024-02-14T10:08:48;99834.66;;;12.87;79.76
23953;BME280;12163;49.316;6.092;2024-02-14T10:11:30;99828.75;;;12.85;80.73
23953;BME280;12163;49.316;6.092;2024-02-14T10:13:58;99839.22;;;12.92;81.28
23953;BME280;12163;49.316;6.092;2024-02-14T10:16:30;99842.22;;;12.90;80.73
23953;BME280;12163;49.316;6.092;2024-02-14T10:18:57;99849.22;;;12.96;80.27
23953;BME280;12163;49.316;6.092;2024-02-14T10:21:24;99847.59;;;12.95;80.09
23953;BME280;12163;49.316;6.092;2024-02-14T10:23:52;99852.50;;;12.93;80.38
23953;BME280;12163;49.316;6.092;2024-02-14T10:26:19;99853.97;;;13.04;79.98
23953;BME280;12163;49.316;6.092;2024-02-14T10:28:46;99856.16;;;13.02;80.00
23953;BME280;12163;49.316;6.092;2024-02-14T10:31:16;99863.69;;;13.05;79.87
23953;BME280;12163;49.316;6.092;2024-02-14T10:33:43;99860.84;;;12.97;79.62
23953;BME280;12163;49.316;6.092;2024-02-14T10:36:12;99855.72;;;12.95;80.51
23953;BME280;12163;49.316;6.092;2024-02-14T10:38:39;99853.97;;;13.04;80.33
23953;BME280;12163;49.316;6.092;2024-02-14T10:41:06;99851.72;;;13.11;79.87
23953;BME280;12163;49.316;6.092;2024-02-14T10:43:36;99849.94;;;13.20;80.01
23953;BME280;12163;49.316;6.092;2024-02-14T10:46:15;99847.63;;;13.27;79.40
23953;BME280;12163;49.316;6.092;2024-02-14T10:48:44;99840.84;;;13.30;78.90
23953;BME280;12163;49.316;6.092;2024-02-14T10:51:12;99847.00;;;13.35;79.09
23953;BME280;12163;49.316;6.092;2024-02-14T10:53:44;99849.38;;;13.37;78.29
23953;BME280;12163;49.316;6.092;2024-02-14T10:56:17;99850.63;;;13.44;78.81
23953;BME280;12163;49.316;6.092;2024-02-14T10:58:48;99847.16;;;13.57;78.96
23953;BME280;12163;49.316;6.092;2024-02-14T11:01:18;99841.56;;;13.67;77.55
23953;BME280;12163;49.316;6.092;2024-02-14T11:03:47;99840.53;;;13.63;77.46
23953;BME280;12163;49.316;6.092;2024-02-14T11:06:17;99841.03;;;13.65;78.20
23953;BME280;12163;49.316;6.092;2024-02-14T11:09:00;99844.56;;;13.65;77.82
23953;BME280;12163;49.316;6.092;2024-02-14T11:11:28;99837.72;;;13.68;78.35
23953;BME280;12163;49.316;6.092;2024-02-14T11:13:57;99840.94;;;13.70;79.26
23953;BME280;12163;49.316;6.092;2024-02-14T11:16:27;99837.94;;;13.71;78.71
23953;BME280;12163;49.316;6.092;2024-02-14T11:19:10;99837.59;;;13.59;79.00
23953;BME280;12163;49.316;6.092;2024-02-14T11:21:50;99836.31;;;13.57;79.46
23953;BME280;12163;49.316;6.092;2024-02-14T11:24:18;99839.53;;;13.59;79.63
23953;BME280;12163;49.316;6.092;2024-02-14T11:26:49;99822.06;;;13.65;79.03
23953;BME280;12163;49.316;6.092;2024-02-14T11:29:18;99825.00;;;13.68;79.21
23953;BME280;12163;49.316;6.092;2024-02-14T11:31:57;99821.97;;;13.70;78.83
23953;BME280;12163;49.316;6.092;2024-02-14T11:34:24;99825.50;;;13.70;79.06
23953;BME280;12163;49.316;6.092;2024-02-14T11:36:51;99821.88;;;13.75;78.91
23953;BME280;12163;49.316;6.092;2024-02-14T11:39:18;99831.72;;;13.71;78.62
23953;BME280;12163;49.316;6.092;2024-02-14T11:41:44;99831.09;;;13.60;79.25
23953;BME280;12163;49.316;6.092;2024-02-14T11:44:11;99830.19;;;13.65;80.02
23953;BME280;12163;49.316;6.092;2024-02-14T11:46:40;99822.09;;;13.78;80.29
23953;BME280;12163;49.316;6.092;2024-02-14T11:49:08;99825.13;;;13.77;79.58
23953;BME280;12163;49.316;6.092;2024-02-14T11:51:36;99804.50;;;13.76;79.48
23953;BME280;12163;49.316;6.092;2024-02-14T11:54:04;99808.41;;;13.70;79.69
23953;BME280;12163;49.316;6.092;2024-02-14T11:56:40;99807.81;;;13.73;79.59
23953;BME280;12163;49.316;6.092;2024-02-14T11:59:07;99809.63;;;13.77;79.20
23953;BME280;12163;49.316;6.092;2024-02-14T12:01:38;99805.53;;;13.80;79.64
23953;BME280;12163;49.316;6.092;2024-02-14T12:04:09;99797.19;;;13.90;79.59
23953;BME280;12163;49.316;6.092;2024-02-14T12:06:40;99788.88;;;14.00;79.16
23953;BME280;12163;49.316;6.092;2024-02-14T12:09:11;99788.66;;;14.10;78.90
23953;BME280;12163;49.316;6.092;2024-02-14T12:11:40;99795.97;;;14.09;79.10
23953;BME280;12163;49.316;6.092;2024-02-14T12:14:11;99797.06;;;14.08;78.59
23953;BME280;12163;49.316;6.092;2024-02-14T12:16:38;99799.50;;;14.10;79.08
23953;BME280;12163;49.316;6.092;2024-02-14T12:19:09;99791.78;;;14.17;79.50
23953;BME280;12163;49.316;6.092;2024-02-14T12:21:38;99788.34;;;14.11;78.64
23953;BME280;12163;49.316;6.092;2024-02-14T12:24:09;99785.31;;;14.13;79.11
23953;BME280;12163;49.316;6.092;2024-02-14T12:26:38;99786.94;;;14.14;79.48
23953;BME280;12163;49.316;6.092;2024-02-14T12:29:05;99779.91;;;14.13;78.91
23953;BME280;12163;49.316;6.092;2024-02-14T12:31:33;99780.50;;;14.10;79.07
23953;BME280;12163;49.316;6.092;2024-02-14T12:34:02;99784.75;;;14.16;78.93
23953;BME280;12163;49.316;6.092;2024-02-14T12:36:29;99776.53;;;14.21;78.87
23953;BME280;12163;49.316;6.092;2024-02-14T12:38:56;99776.53;;;14.21;78.59
23953;BME280;12163;49.316;6.092;2024-02-14T12:41:23;99772.28;;;14.28;79.31
23953;BME280;12163;49.316;6.092;2024-02-14T12:43:52;99769.66;;;14.37;78.79
23953;BME280;12163;49.316;6.092;2024-02-14T12:46:21;99778.13;;;14.35;78.26
23953;BME280;12163;49.316;6.092;2024-02-14T12:48:48;99780.63;;;14.32;77.78
23953;BME280;12163;49.316;6.092;2024-02-14T12:51:14;99784.81;;;14.38;78.26
23953;BME280;12163;49.316;6.092;2024-02-14T12:53:43;99782.41;;;14.50;78.30
23953;BME280;12163;49.316;6.092;2024-02-14T12:56:10;99771.00;;;14.61;77.88
23953;BME280;12163;49.316;6.092;2024-02-14T12:58:37;99787.47;;;14.78;77.19
23953;BME280;12163;49.316;6.092;2024-02-14T13:01:04;99779.69;;;14.85;76.96
23953;BME280;12163;49.316;6.092;2024-02-14T13:03:34;99775.75;;;14.91;76.54